createdAt,value
2022-11-13T00:01:56.694Z,67.48
2022-11-13T00:04:42.580Z,66.90
2022-11-13T00:07:28.797Z,67.72
2022-11-13T00:10:17.120Z,68.47
2022-11-13T00:13:03.312Z,68.20
2022-11-13T00:16:03.752Z,67.52
2022-11-13T00:18:49.852Z,67.44
2022-11-13T00:21:35.552Z,68.65
2022-11-13T00:24:21.448Z,67.70
2022-11-13T00:27:07.903Z,68.12
2022-11-13T00:29:53.624Z,68.12
2022-11-13T00:32:40.117Z,67.96
2022-11-13T00:35:26.187Z,67.60
2022-11-13T00:38:11.749Z,69.79
2022-11-13T00:41:02.813Z,68.03
2022-11-13T00:43:49.096Z,67.79
2022-11-13T00:46:35.319Z,68.59
2022-11-13T00:49:22.405Z,68.60
2022-11-13T00:52:08.460Z,68.85
2022-11-13T00:54:54.097Z,68.36
2022-11-13T00:57:40.020Z,69.76
2022-11-13T01:00:25.840Z,67.06
2022-11-13T01:03:13.612Z,68.23
2022-11-13T01:05:59.231Z,69.41
2022-11-13T01:08:46.055Z,67.53
2022-11-13T01:11:32.201Z,67.01
2022-11-13T01:14:17.816Z,68.03
2022-11-13T01:17:03.467Z,66.51
2022-11-13T01:19:49.532Z,66.54
2022-11-13T01:22:35.497Z,67.23
2022-11-13T01:25:21.035Z,67.57
2022-11-13T01:28:09.492Z,67.77
2022-11-13T01:30:55.449Z,68.40
2022-11-13T01:33:41.249Z,68.68
2022-11-13T01:36:29.677Z,69.20
2022-11-13T01:39:15.483Z,69.48
2022-11-13T01:42:01.383Z,69.28
2022-11-13T01:44:59.754Z,68.55
2022-11-13T01:47:46.569Z,68.23
2022-11-13T01:50:32.994Z,68.24
2022-11-13T01:53:19.684Z,66.54
2022-11-13T01:56:07.774Z,66.61
2022-11-13T01:59:14.110Z,66.88
2022-11-13T02:02:00.763Z,66.41
2022-11-13T02:04:47.086Z,66.04
2022-11-13T02:07:32.984Z,66.91
2022-11-13T02:10:19.181Z,67.28
2022-11-13T02:13:05.511Z,67.96
2022-11-13T02:15:52.535Z,65.37
2022-11-13T02:18:40.521Z,66.20
2022-11-13T02:21:55.980Z,64.79
2022-11-13T02:24:48.754Z,65.94
2022-11-13T02:27:45.739Z,65.61
2022-11-13T02:30:35.317Z,65.03
2022-11-13T02:33:33.609Z,65.62
2022-11-13T02:36:25.489Z,65.59
2022-11-13T02:39:13.957Z,66.16
2022-11-13T02:41:59.856Z,66.07
2022-11-13T02:44:51.827Z,64.38
2022-11-13T02:47:37.997Z,64.59
2022-11-13T02:50:24.290Z,65.58
2022-11-13T02:53:10.662Z,65.60
2022-11-13T02:55:56.972Z,65.84
2022-11-13T02:58:43.184Z,68.54
2022-11-13T03:01:29.058Z,68.79
2022-11-13T03:04:23.998Z,69.20
2022-11-13T03:07:10.826Z,68.74
2022-11-13T03:09:57.548Z,70.46
2022-11-13T03:12:43.924Z,70.64
2022-11-13T03:15:32.597Z,70.85
2022-11-13T03:18:18.373Z,72.07
2022-11-13T03:21:12.479Z,70.15
2022-11-13T03:24:00.529Z,69.45
2022-11-13T03:26:47.141Z,70.33
2022-11-13T03:29:35.393Z,70.61
2022-11-13T03:32:21.255Z,70.93
2022-11-13T03:35:08.915Z,69.24
2022-11-13T03:37:54.681Z,69.20
2022-11-13T03:40:47.093Z,68.15
2022-11-13T03:43:34.409Z,68.52
2022-11-13T03:46:20.434Z,67.88
2022-11-13T03:49:06.391Z,69.74
2022-11-13T03:51:52.321Z,69.66
2022-11-13T03:54:39.248Z,67.67
2022-11-13T03:57:27.081Z,68.01
2022-11-13T04:00:14.689Z,68.04
2022-11-13T04:03:00.762Z,67.94
2022-11-13T04:05:51.341Z,68.04
2022-11-13T04:08:37.485Z,67.43
2022-11-13T04:11:26.605Z,67.38
2022-11-13T04:14:13.440Z,67.35
2022-11-13T04:16:59.990Z,66.88
2022-11-13T04:19:46.412Z,67.35
2022-11-13T04:22:32.233Z,67.15
2022-11-13T04:25:17.809Z,66.75
2022-11-13T04:28:10.556Z,68.67
2022-11-13T04:30:57.332Z,69.48
2022-11-13T04:33:43.313Z,68.90
2022-11-13T04:36:28.773Z,67.71
2022-11-13T04:39:14.431Z,68.04
2022-11-13T04:42:19.296Z,67.37
2022-11-13T04:45:06.977Z,66.12
2022-11-13T04:47:53.944Z,66.45
2022-11-13T04:50:40.206Z,67.31
2022-11-13T04:53:26.468Z,67.52
2022-11-13T04:56:12.514Z,66.59
2022-11-13T04:58:58.467Z,66.40
2022-11-13T05:01:44.215Z,66.27
2022-11-13T05:04:30.417Z,66.44
2022-11-13T05:07:17.017Z,66.01
2022-11-13T05:10:03.455Z,66.02
2022-11-13T05:12:49.553Z,65.87
2022-11-13T05:15:35.409Z,66.21
2022-11-13T05:18:26.843Z,66.38
2022-11-13T05:21:13.290Z,65.68
2022-11-13T05:23:58.830Z,65.32
2022-11-13T05:26:45.374Z,65.47
2022-11-13T05:29:31.879Z,66.56
2022-11-13T05:32:17.938Z,66.03
2022-11-13T05:35:04.298Z,66.78
2022-11-13T05:37:50.483Z,66.38
2022-11-13T05:41:05.235Z,65.92
2022-11-13T05:43:58.039Z,64.85
2022-11-13T05:46:45.699Z,65.27
2022-11-13T05:49:31.941Z,65.14
2022-11-13T05:52:17.351Z,64.86
2022-11-13T05:55:09.610Z,64.71
2022-11-13T05:57:55.706Z,66.16
2022-11-13T06:00:41.899Z,66.00
2022-11-13T06:03:30.327Z,67.56
2022-11-13T06:06:20.805Z,68.67
2022-11-13T06:09:07.821Z,68.78
2022-11-13T06:11:54.289Z,68.74
2022-11-13T06:14:39.996Z,66.81
2022-11-13T06:17:28.258Z,65.84
2022-11-13T06:20:15.739Z,67.36
2022-11-13T06:23:01.869Z,67.00
2022-11-13T06:25:47.980Z,66.40
2022-11-13T06:28:35.703Z,66.78
2022-11-13T06:31:29.843Z,66.78
2022-11-13T06:34:15.881Z,65.87
2022-11-13T06:37:02.041Z,65.80
2022-11-13T06:39:47.845Z,65.94
2022-11-13T06:42:34.452Z,66.39
2022-11-13T06:45:20.544Z,66.44
2022-11-13T06:48:06.970Z,66.33
2022-11-13T06:50:52.994Z,66.25
2022-11-13T06:53:38.967Z,63.67
2022-11-13T06:56:26.888Z,63.04
2022-11-13T06:59:13.582Z,63.93
2022-11-13T07:01:59.545Z,63.34
2022-11-13T07:04:45.554Z,61.85
2022-11-13T07:07:32.035Z,60.96
2022-11-13T07:10:18.955Z,61.69
2022-11-13T07:13:06.097Z,61.84
2022-11-13T07:15:52.354Z,61.72
2022-11-13T07:18:38.917Z,62.65
2022-11-13T07:21:25.599Z,63.08
2022-11-13T07:24:16.582Z,63.35
2022-11-13T07:27:03.151Z,63.15
2022-11-13T07:29:49.637Z,63.01
2022-11-13T07:32:35.694Z,63.41
2022-11-13T07:35:25.860Z,65.50
2022-11-13T07:38:11.878Z,64.82
2022-11-13T07:41:03.596Z,64.14
2022-11-13T07:43:49.395Z,65.79
2022-11-13T07:46:35.056Z,65.51
2022-11-13T07:49:21.046Z,62.63
2022-11-13T07:52:08.262Z,62.23
2022-11-13T07:54:54.220Z,64.07
2022-11-13T07:57:40.760Z,64.40
2022-11-13T08:00:29.085Z,64.12
2022-11-13T08:03:17.473Z,64.63
2022-11-13T08:06:08.737Z,63.39
2022-11-13T08:08:55.606Z,62.78
2022-11-13T08:11:42.000Z,65.32
2022-11-13T08:14:27.590Z,65.63
2022-11-13T08:17:14.025Z,63.98
2022-11-13T08:19:59.753Z,63.64
2022-11-13T08:22:45.432Z,63.50
2022-11-13T08:25:35.009Z,61.89
2022-11-13T08:28:27.548Z,60.68
2022-11-13T08:31:16.478Z,64.11
2022-11-13T08:34:02.425Z,64.35
2022-11-13T08:36:48.657Z,64.37
2022-11-13T08:39:35.650Z,64.48
2022-11-13T08:42:22.429Z,63.58
2022-11-13T08:45:09.917Z,63.80
2022-11-13T08:48:01.870Z,62.02
2022-11-13T08:50:55.854Z,60.19
2022-11-13T08:53:42.408Z,61.16
2022-11-13T08:56:29.016Z,60.28
2022-11-13T08:59:16.195Z,58.54
2022-11-13T09:02:02.586Z,58.01
2022-11-13T09:04:48.408Z,59.18
2022-11-13T09:07:34.634Z,59.10
2022-11-13T09:10:21.176Z,59.69
2022-11-13T09:13:08.796Z,58.91
2022-11-13T09:15:54.824Z,58.29
2022-11-13T09:18:41.592Z,57.61
2022-11-13T09:21:27.453Z,57.11
2022-11-13T09:24:13.031Z,56.25
2022-11-13T09:26:59.165Z,56.83
2022-11-13T09:29:45.254Z,55.86
2022-11-13T09:32:31.219Z,56.51
2022-11-13T09:35:16.925Z,56.02
2022-11-13T09:38:14.720Z,55.87
2022-11-13T09:41:11.657Z,55.26
2022-11-13T09:44:06.954Z,55.54
2022-11-13T09:47:25.436Z,53.64
2022-11-13T09:50:29.864Z,52.61
2022-11-13T09:53:16.688Z,51.68
2022-11-13T09:56:19.828Z,51.64
2022-11-13T09:59:32.388Z,50.58
2022-11-13T10:02:48.960Z,49.96
2022-11-13T10:06:25.323Z,48.95
2022-11-13T10:09:46.325Z,48.13
2022-11-13T10:12:34.124Z,49.37
2022-11-13T10:15:21.239Z,46.63
2022-11-13T10:18:35.259Z,45.17
2022-11-13T10:21:54.865Z,45.49
2022-11-13T10:24:46.084Z,45.16
2022-11-13T10:27:32.082Z,42.60
2022-11-13T10:30:20.065Z,41.23
2022-11-13T10:33:09.530Z,39.39
2022-11-13T10:36:29.162Z,36.05
2022-11-13T10:39:14.846Z,35.73
2022-11-13T10:42:00.853Z,36.09
2022-11-13T10:44:59.769Z,38.72
2022-11-13T10:48:07.445Z,35.76
2022-11-13T10:51:03.218Z,31.96
2022-11-13T10:53:49.461Z,29.45
2022-11-13T10:56:37.144Z,26.93
2022-11-13T10:59:25.404Z,26.83
2022-11-13T11:02:11.677Z,26.31
2022-11-13T11:05:24.543Z,25.41
2022-11-13T11:08:14.475Z,25.70
2022-11-13T11:11:34.517Z,25.45
2022-11-13T11:14:39.842Z,25.38
2022-11-13T11:17:56.761Z,25.37
2022-11-13T11:20:58.389Z,25.17
2022-11-13T11:24:14.285Z,24.71
2022-11-13T11:27:23.254Z,25.44
2022-11-13T11:30:26.301Z,24.95
2022-11-13T11:33:33.031Z,24.75
2022-11-13T11:36:35.343Z,25.00
2022-11-13T11:39:49.120Z,25.01
2022-11-13T11:42:56.385Z,26.62
2022-11-13T11:45:46.241Z,26.78
2022-11-13T11:48:34.202Z,26.04
2022-11-13T11:51:48.965Z,26.17
2022-11-13T11:55:25.276Z,25.62
2022-11-13T11:58:58.618Z,26.84
2022-11-13T12:02:38.558Z,26.18
2022-11-13T12:05:42.233Z,27.92
2022-11-13T12:08:56.039Z,27.08
2022-11-13T12:12:06.960Z,26.57
2022-11-13T12:15:44.484Z,27.34
2022-11-13T12:18:44.446Z,26.67
2022-11-13T12:21:43.899Z,27.13
2022-11-13T12:24:53.916Z,26.98
2022-11-13T12:28:24.213Z,26.61
2022-11-13T12:32:13.825Z,26.91
2022-11-13T12:35:19.612Z,27.52
2022-11-13T12:38:08.804Z,27.93
2022-11-13T12:41:16.920Z,28.25
2022-11-13T12:44:25.904Z,29.91
2022-11-13T12:47:12.862Z,30.71
2022-11-13T12:50:32.236Z,31.23
2022-11-13T12:53:29.226Z,31.54
2022-11-13T12:56:24.423Z,31.57
2022-11-13T12:59:35.869Z,31.59
2022-11-13T13:02:56.903Z,31.51
2022-11-13T13:06:15.508Z,32.85
2022-11-13T13:09:31.407Z,32.81
2022-11-13T13:12:59.203Z,33.00
2022-11-13T13:16:05.112Z,33.69
2022-11-13T13:18:50.948Z,34.09
2022-11-13T13:21:44.333Z,33.08
2022-11-13T13:24:36.009Z,34.13
2022-11-13T13:27:30.878Z,35.29
2022-11-13T13:30:25.302Z,36.68
2022-11-13T13:33:25.833Z,39.31
2022-11-13T13:37:33.367Z,41.90
2022-11-13T13:40:51.711Z,43.38
2022-11-13T13:44:18.023Z,43.21
2022-11-13T13:47:38.888Z,44.54
2022-11-13T13:50:40.954Z,44.11
2022-11-13T13:53:32.743Z,44.38
2022-11-13T13:56:22.671Z,44.56
2022-11-13T13:59:22.555Z,44.66
2022-11-13T14:02:21.995Z,45.18
2022-11-13T14:05:35.936Z,45.15
2022-11-13T14:08:28.294Z,45.85
2022-11-13T14:11:29.529Z,46.35
2022-11-13T14:14:23.487Z,46.25
2022-11-13T14:17:12.171Z,46.17
2022-11-13T14:20:00.958Z,46.07
2022-11-13T14:22:55.358Z,46.09
2022-11-13T14:25:45.905Z,46.91
2022-11-13T14:28:54.438Z,46.40
2022-11-13T14:31:40.523Z,46.92
2022-11-13T14:34:26.913Z,47.64
2022-11-13T14:37:37.897Z,47.86
2022-11-13T14:40:31.626Z,48.21
2022-11-13T14:43:29.338Z,47.18
2022-11-13T14:46:31.958Z,47.19
2022-11-13T14:49:32.652Z,47.41
2022-11-13T14:52:28.801Z,47.38
2022-11-13T14:55:28.483Z,46.96
2022-11-13T14:58:15.004Z,45.30
2022-11-13T15:01:17.163Z,43.71
2022-11-13T15:04:03.357Z,44.06
2022-11-13T15:06:58.981Z,45.71
2022-11-13T15:09:55.185Z,48.20
2022-11-13T15:12:56.550Z,49.31
2022-11-13T15:15:50.483Z,50.30
2022-11-13T15:18:37.335Z,51.25
2022-11-13T15:21:24.356Z,51.81
2022-11-13T15:24:15.250Z,51.89
2022-11-13T15:27:03.732Z,52.00
2022-11-13T15:29:52.027Z,51.79
2022-11-13T15:32:39.638Z,52.10
2022-11-13T15:35:47.582Z,52.45
2022-11-13T15:38:33.999Z,53.95
2022-11-13T15:44:55.764Z,54.47
2022-11-13T15:48:24.642Z,54.33
2022-11-13T15:51:50.662Z,55.57
2022-11-13T15:55:02.107Z,55.78
2022-11-13T15:57:55.871Z,57.32
2022-11-13T16:00:43.422Z,58.76
2022-11-13T16:03:32.098Z,58.31
2022-11-13T16:06:34.273Z,58.62
2022-11-13T16:09:23.855Z,58.70
2022-11-13T16:12:23.733Z,59.26
2022-11-13T16:16:25.531Z,59.05
2022-11-13T16:18:58.770Z,59.38
2022-11-13T16:21:49.789Z,59.15
2022-11-13T16:24:39.384Z,60.23
2022-11-13T16:27:30.933Z,59.97
2022-11-13T16:30:23.427Z,60.46
2022-11-13T16:33:13.136Z,60.32
2022-11-13T16:35:59.237Z,60.82
2022-11-13T16:38:45.602Z,60.98
2022-11-13T16:41:35.642Z,61.70
2022-11-13T16:44:25.819Z,61.91
2022-11-13T16:47:36.710Z,63.90
2022-11-13T16:50:30.237Z,63.21
2022-11-13T16:53:30.545Z,63.14
2022-11-13T16:56:31.807Z,62.93
2022-11-13T16:59:25.845Z,62.35
2022-11-13T17:02:19.114Z,62.40
2022-11-13T17:05:12.629Z,62.31
2022-11-13T17:08:00.272Z,62.38
2022-11-13T17:10:57.093Z,62.80
2022-11-13T17:13:44.381Z,63.30
2022-11-13T17:16:32.486Z,62.82
2022-11-13T17:19:23.301Z,63.01
2022-11-13T17:22:13.783Z,62.85
2022-11-13T17:24:59.831Z,64.28
2022-11-13T17:27:49.273Z,63.61
2022-11-13T17:30:35.255Z,62.09
2022-11-13T17:33:21.328Z,64.22
2022-11-13T17:36:09.309Z,64.36
2022-11-13T17:38:55.797Z,64.50
2022-11-13T17:41:45.429Z,63.81
2022-11-13T17:44:31.713Z,63.93
2022-11-13T17:47:17.691Z,64.11
2022-11-13T17:50:17.880Z,64.24
2022-11-13T17:53:06.450Z,64.09
2022-11-13T17:56:02.846Z,65.23
2022-11-13T17:58:48.827Z,66.17
2022-11-13T18:01:35.277Z,66.59
2022-11-13T18:04:21.445Z,66.17
2022-11-13T18:07:07.275Z,65.95
2022-11-13T18:09:53.931Z,66.11
2022-11-13T18:12:40.766Z,65.68
2022-11-13T18:15:27.282Z,64.74
2022-11-13T18:18:15.018Z,65.12
2022-11-13T18:21:22.711Z,66.68
2022-11-13T18:24:19.545Z,67.37
2022-11-13T18:27:06.966Z,67.49
2022-11-13T18:29:53.442Z,68.34
2022-11-13T18:32:39.674Z,66.80
2022-11-13T18:35:25.746Z,67.25
2022-11-13T18:38:16.291Z,66.76
2022-11-13T18:41:13.980Z,67.20
2022-11-13T18:44:00.457Z,68.16
2022-11-13T18:46:49.648Z,69.92
2022-11-13T18:49:35.849Z,70.39
2022-11-13T18:52:22.137Z,70.07
2022-11-13T18:55:10.498Z,68.74
2022-11-13T18:57:56.809Z,68.59
2022-11-13T19:00:42.734Z,67.66
2022-11-13T19:03:31.570Z,66.86
2022-11-13T19:06:21.048Z,67.92
2022-11-13T19:09:15.339Z,67.88
2022-11-13T19:12:01.629Z,67.37
2022-11-13T19:14:47.748Z,67.59
2022-11-13T19:17:35.905Z,68.18
2022-11-13T19:20:22.690Z,68.60
2022-11-13T19:23:09.568Z,67.17
2022-11-13T19:25:56.479Z,67.34
2022-11-13T19:28:46.939Z,66.25
2022-11-13T19:31:34.652Z,67.33
2022-11-13T19:34:20.819Z,67.79
2022-11-13T19:37:11.891Z,67.38
2022-11-13T19:40:01.883Z,67.50
2022-11-13T19:42:57.729Z,68.17
2022-11-13T19:45:46.780Z,68.82
2022-11-13T19:48:35.937Z,69.14
2022-11-13T19:51:26.254Z,68.20
2022-11-13T19:54:12.223Z,68.70
2022-11-13T19:56:58.148Z,69.38
2022-11-13T19:59:44.663Z,69.51
2022-11-13T20:02:30.785Z,69.35
2022-11-13T20:05:17.369Z,69.60
2022-11-13T20:08:11.603Z,69.43
2022-11-13T20:11:12.020Z,69.56
2022-11-13T20:13:59.702Z,67.94
2022-11-13T20:16:45.911Z,68.45
2022-11-13T20:19:32.232Z,68.56
2022-11-13T20:22:18.269Z,67.50
2022-11-13T20:25:05.372Z,68.12
2022-11-13T20:27:51.289Z,69.47
2022-11-13T20:30:37.401Z,69.09
2022-11-13T20:33:23.383Z,69.57
2022-11-13T20:36:10.030Z,69.79
2022-11-13T20:38:57.953Z,69.27
2022-11-13T20:41:43.952Z,68.57
2022-11-13T20:44:30.733Z,67.84
2022-11-13T20:47:16.742Z,67.77
2022-11-13T20:50:03.338Z,67.12
2022-11-13T20:52:50.463Z,67.15
2022-11-13T20:55:36.752Z,66.79
2022-11-13T20:58:24.991Z,66.97
2022-11-13T21:01:15.776Z,67.11
2022-11-13T21:04:11.084Z,67.79
2022-11-13T21:06:57.139Z,68.27
2022-11-13T21:09:48.906Z,69.31
2022-11-13T21:12:36.255Z,68.76
2022-11-13T21:15:24.116Z,68.78
2022-11-13T21:18:10.715Z,69.02
2022-11-13T21:21:19.460Z,68.47
2022-11-13T21:24:09.726Z,68.94
2022-11-13T21:27:28.044Z,67.79
2022-11-13T21:30:05.585Z,68.25
2022-11-13T21:32:51.509Z,67.75
2022-11-13T21:35:37.298Z,67.51
2022-11-13T21:38:23.162Z,67.71
2022-11-13T21:41:21.811Z,67.47
2022-11-13T21:44:10.727Z,67.71
2022-11-13T21:46:56.485Z,68.51
2022-11-13T21:49:42.916Z,66.22
2022-11-13T21:52:30.022Z,67.11
2022-11-13T21:55:16.771Z,66.99
2022-11-13T21:58:02.810Z,68.92
2022-11-13T22:00:48.350Z,67.50
2022-11-13T22:03:34.224Z,67.79
2022-11-13T22:06:30.667Z,67.64
2022-11-13T22:09:23.104Z,67.30
2022-11-13T22:12:13.614Z,66.86
2022-11-13T22:14:59.279Z,66.18
2022-11-13T22:17:52.669Z,64.93
2022-11-13T22:20:38.891Z,64.52
2022-11-13T22:23:24.993Z,65.49
2022-11-13T22:26:16.123Z,66.74
2022-11-13T22:29:02.157Z,67.21
2022-11-13T22:31:48.087Z,67.33
2022-11-13T22:34:33.607Z,66.57
2022-11-13T22:37:19.244Z,66.27
2022-11-13T22:40:06.782Z,66.22
2022-11-13T22:42:56.126Z,65.71
2022-11-13T22:45:41.792Z,66.54
2022-11-13T22:48:27.867Z,66.88
2022-11-13T22:51:24.112Z,68.81
2022-11-13T22:54:13.250Z,69.15
2022-11-13T22:57:04.137Z,68.66
2022-11-13T22:59:50.530Z,69.30
2022-11-13T23:02:36.485Z,68.61
2022-11-13T23:05:22.411Z,67.46
2022-11-13T23:08:08.782Z,67.69
2022-11-13T23:10:56.281Z,68.03
2022-11-13T23:13:48.164Z,68.14
2022-11-13T23:16:34.752Z,68.65
2022-11-13T23:19:20.687Z,68.76
2022-11-13T23:22:06.172Z,67.93
2022-11-13T23:24:52.394Z,67.25
2022-11-13T23:27:38.660Z,66.70
2022-11-13T23:30:25.587Z,67.05
2022-11-13T23:33:11.428Z,67.70
2022-11-13T23:35:57.213Z,67.88
2022-11-13T23:38:43.006Z,66.66
2022-11-13T23:41:29.205Z,66.19
2022-11-13T23:44:15.756Z,66.22
2022-11-13T23:47:01.583Z,67.68
2022-11-13T23:49:47.508Z,67.77
2022-11-13T23:52:33.562Z,68.51
2022-11-13T23:55:21.552Z,66.94
2022-11-13T23:58:15.225Z,66.66
